sensor_id;sensor_type;location;lat;lon;timestamp;P1;durP1;ratioP1;P2;durP2;ratioP2
38725;SDS011;24474;48.906;8.808;2023-07-30T00:02:17;1.40;;;0.95;;
38725;SDS011;24474;48.906;8.808;2023-07-30T00:04:43;1.88;;;0.90;;
38725;SDS011;24474;48.906;8.808;2023-07-30T00:07:10;2.20;;;1.10;;
38725;SDS011;24474;48.906;8.808;2023-07-30T00:09:36;1.50;;;0.85;;
38725;SDS011;24474;48.906;8.808;2023-07-30T00:12:04;1.58;;;1.00;;
38725;SDS011;24474;48.906;8.808;2023-07-30T00:14:31;3.45;;;1.10;;
38725;SDS011;24474;48.906;8.808;2023-07-30T00:16:56;1.35;;;1.00;;
38725;SDS011;24474;48.906;8.808;2023-07-30T00:19:22;3.28;;;0.80;;
38725;SDS011;24474;48.906;8.808;2023-07-30T00:21:47;1.75;;;0.90;;
38725;SDS011;24474;48.906;8.808;2023-07-30T00:24:13;1.83;;;0.70;;
38725;SDS011;24474;48.906;8.808;2023-07-30T00:26:40;1.95;;;0.90;;
38725;SDS011;24474;48.906;8.808;2023-07-30T00:29:05;1.95;;;0.80;;
38725;SDS011;24474;48.906;8.808;2023-07-30T00:31:31;1.88;;;0.73;;
38725;SDS011;24474;48.906;8.808;2023-07-30T00:33:57;1.60;;;0.80;;
38725;SDS011;24474;48.906;8.808;2023-07-30T00:36:25;1.15;;;0.85;;
38725;SDS011;24474;48.906;8.808;2023-07-30T00:38:51;1.77;;;0.90;;
38725;SDS011;24474;48.906;8.808;2023-07-30T00:41:19;1.77;;;0.68;;
38725;SDS011;24474;48.906;8.808;2023-07-30T00:43:46;5.78;;;0.80;;
38725;SDS011;24474;48.906;8.808;2023-07-30T00:46:12;1.15;;;0.80;;
38725;SDS011;24474;48.906;8.808;2023-07-30T00:48:39;1.15;;;0.63;;
38725;SDS011;24474;48.906;8.808;2023-07-30T00:51:06;1.77;;;0.80;;
38725;SDS011;24474;48.906;8.808;2023-07-30T00:53:35;1.33;;;0.65;;
38725;SDS011;24474;48.906;8.808;2023-07-30T00:56:03;1.50;;;0.70;;
38725;SDS011;24474;48.906;8.808;2023-07-30T00:58:31;1.25;;;0.70;;
38725;SDS011;24474;48.906;8.808;2023-07-30T01:00:58;0.80;;;0.55;;
38725;SDS011;24474;48.906;8.808;2023-07-30T01:03:25;0.80;;;0.60;;
38725;SDS011;24474;48.906;8.808;2023-07-30T01:05:51;1.15;;;0.80;;
38725;SDS011;24474;48.906;8.808;2023-07-30T01:08:18;1.90;;;0.80;;
38725;SDS011;24474;48.906;8.808;2023-07-30T01:10:45;1.42;;;0.60;;
38725;SDS011;24474;48.906;8.808;2023-07-30T01:13:12;1.25;;;0.80;;
38725;SDS011;24474;48.906;8.808;2023-07-30T01:15:39;1.67;;;0.68;;
38725;SDS011;24474;48.906;8.808;2023-07-30T01:18:05;1.95;;;0.70;;
38725;SDS011;24474;48.906;8.808;2023-07-30T01:20:30;2.50;;;0.80;;
38725;SDS011;24474;48.906;8.808;2023-07-30T01:22:59;1.77;;;0.70;;
38725;SDS011;24474;48.906;8.808;2023-07-30T01:25:30;1.17;;;0.60;;
38725;SDS011;24474;48.906;8.808;2023-07-30T01:28:01;1.85;;;0.60;;
38725;SDS011;24474;48.906;8.808;2023-07-30T01:30:48;1.15;;;0.70;;
38725;SDS011;24474;48.906;8.808;2023-07-30T01:33:14;3.67;;;0.73;;
38725;SDS011;24474;48.906;8.808;2023-07-30T01:35:41;1.58;;;0.93;;
38725;SDS011;24474;48.906;8.808;2023-07-30T01:38:13;1.55;;;0.70;;
38725;SDS011;24474;48.906;8.808;2023-07-30T01:40:39;0.90;;;0.68;;
38725;SDS011;24474;48.906;8.808;2023-07-30T01:43:07;2.05;;;0.95;;
38725;SDS011;24474;48.906;8.808;2023-07-30T01:45:32;1.40;;;0.90;;
38725;SDS011;24474;48.906;8.808;2023-07-30T01:48:00;1.02;;;0.80;;
38725;SDS011;24474;48.906;8.808;2023-07-30T01:50:27;1.55;;;0.80;;
38725;SDS011;24474;48.906;8.808;2023-07-30T01:52:53;1.73;;;1.00;;
38725;SDS011;24474;48.906;8.808;2023-07-30T01:55:21;2.28;;;0.90;;
38725;SDS011;24474;48.906;8.808;2023-07-30T01:57:46;1.60;;;0.80;;
38725;SDS011;24474;48.906;8.808;2023-07-30T02:00:14;1.30;;;0.68;;
38725;SDS011;24474;48.906;8.808;2023-07-30T02:02:42;2.38;;;0.80;;
38725;SDS011;24474;48.906;8.808;2023-07-30T02:05:08;2.08;;;1.00;;
38725;SDS011;24474;48.906;8.808;2023-07-30T02:07:34;1.90;;;0.70;;
38725;SDS011;24474;48.906;8.808;2023-07-30T02:10:01;0.73;;;0.60;;
38725;SDS011;24474;48.906;8.808;2023-07-30T02:12:27;1.27;;;0.88;;
38725;SDS011;24474;48.906;8.808;2023-07-30T02:14:54;1.60;;;1.00;;
38725;SDS011;24474;48.906;8.808;2023-07-30T02:17:20;2.22;;;1.00;;
38725;SDS011;24474;48.906;8.808;2023-07-30T02:19:46;0.85;;;0.70;;
38725;SDS011;24474;48.906;8.808;2023-07-30T02:22:13;1.13;;;0.73;;
38725;SDS011;24474;48.906;8.808;2023-07-30T02:24:40;2.13;;;0.80;;
38725;SDS011;24474;48.906;8.808;2023-07-30T02:27:05;1.80;;;1.10;;
38725;SDS011;24474;48.906;8.808;2023-07-30T02:29:35;2.15;;;0.88;;
38725;SDS011;24474;48.906;8.808;2023-07-30T02:32:00;1.10;;;1.00;;
38725;SDS011;24474;48.906;8.808;2023-07-30T02:34:27;0.70;;;0.70;;
38725;SDS011;24474;48.906;8.808;2023-07-30T02:36:52;2.78;;;0.90;;
38725;SDS011;24474;48.906;8.808;2023-07-30T02:39:19;1.38;;;1.10;;
38725;SDS011;24474;48.906;8.808;2023-07-30T02:41:45;2.65;;;1.20;;
38725;SDS011;24474;48.906;8.808;2023-07-30T02:44:12;3.05;;;1.02;;
38725;SDS011;24474;48.906;8.808;2023-07-30T02:46:39;1.27;;;0.90;;
38725;SDS011;24474;48.906;8.808;2023-07-30T02:49:08;3.45;;;1.10;;
38725;SDS011;24474;48.906;8.808;2023-07-30T02:51:34;1.95;;;1.10;;
38725;SDS011;24474;48.906;8.808;2023-07-30T02:54:03;1.27;;;0.95;;
38725;SDS011;24474;48.906;8.808;2023-07-30T02:56:32;1.63;;;1.00;;
38725;SDS011;24474;48.906;8.808;2023-07-30T02:58:59;1.67;;;1.00;;
38725;SDS011;24474;48.906;8.808;2023-07-30T03:01:25;1.30;;;1.00;;
38725;SDS011;24474;48.906;8.808;2023-07-30T03:03:52;3.70;;;1.30;;
38725;SDS011;24474;48.906;8.808;2023-07-30T03:06:24;1.55;;;1.13;;
38725;SDS011;24474;48.906;8.808;2023-07-30T03:08:51;1.58;;;1.00;;
38725;SDS011;24474;48.906;8.808;2023-07-30T03:11:16;2.22;;;1.30;;
38725;SDS011;24474;48.906;8.808;2023-07-30T03:13:43;1.20;;;1.00;;
38725;SDS011;24474;48.906;8.808;2023-07-30T03:16:10;1.83;;;1.20;;
38725;SDS011;24474;48.906;8.808;2023-07-30T03:18:36;4.78;;;1.20;;
38725;SDS011;24474;48.906;8.808;2023-07-30T03:21:03;1.98;;;1.20;;
38725;SDS011;24474;48.906;8.808;2023-07-30T03:23:30;2.28;;;1.20;;
38725;SDS011;24474;48.906;8.808;2023-07-30T03:25:59;1.52;;;1.10;;
38725;SDS011;24474;48.906;8.808;2023-07-30T03:28:26;1.80;;;1.20;;
38725;SDS011;24474;48.906;8.808;2023-07-30T03:30:52;1.98;;;1.15;;
38725;SDS011;24474;48.906;8.808;2023-07-30T03:33:20;1.75;;;1.17;;
38725;SDS011;24474;48.906;8.808;2023-07-30T03:35:45;1.92;;;1.25;;
38725;SDS011;24474;48.906;8.808;2023-07-30T03:38:14;1.52;;;0.98;;
38725;SDS011;24474;48.906;8.808;2023-07-30T03:40:41;2.08;;;1.10;;
38725;SDS011;24474;48.906;8.808;2023-07-30T03:43:07;2.58;;;1.13;;
38725;SDS011;24474;48.906;8.808;2023-07-30T03:45:35;2.10;;;1.20;;
38725;SDS011;24474;48.906;8.808;2023-07-30T03:48:02;2.33;;;1.38;;
38725;SDS011;24474;48.906;8.808;2023-07-30T03:50:29;3.03;;;1.10;;
38725;SDS011;24474;48.906;8.808;2023-07-30T03:52:57;2.08;;;1.30;;
38725;SDS011;24474;48.906;8.808;2023-07-30T03:55:24;3.22;;;1.30;;
38725;SDS011;24474;48.906;8.808;2023-07-30T03:57:51;1.50;;;1.20;;
38725;SDS011;24474;48.906;8.808;2023-07-30T04:00:17;3.92;;;1.50;;
38725;SDS011;24474;48.906;8.808;2023-07-30T04:02:44;2.50;;;1.30;;
38725;SDS011;24474;48.906;8.808;2023-07-30T04:05:13;3.13;;;1.40;;
38725;SDS011;24474;48.906;8.808;2023-07-30T04:07:39;2.88;;;2.00;;
38725;SDS011;24474;48.906;8.808;2023-07-30T04:10:07;2.92;;;1.80;;
38725;SDS011;24474;48.906;8.808;2023-07-30T04:12:34;2.50;;;1.70;;
38725;SDS011;24474;48.906;8.808;2023-07-30T04:15:01;2.67;;;1.45;;
38725;SDS011;24474;48.906;8.808;2023-07-30T04:17:26;2.38;;;1.45;;
38725;SDS011;24474;48.906;8.808;2023-07-30T04:19:53;2.85;;;1.75;;
38725;SDS011;24474;48.906;8.808;2023-07-30T04:22:19;3.17;;;1.75;;
38725;SDS011;24474;48.906;8.808;2023-07-30T04:24:45;4.55;;;1.75;;
38725;SDS011;24474;48.906;8.808;2023-07-30T04:27:11;4.97;;;1.80;;
38725;SDS011;24474;48.906;8.808;2023-07-30T04:29:38;2.58;;;1.60;;
38725;SDS011;24474;48.906;8.808;2023-07-30T04:32:05;3.13;;;1.70;;
38725;SDS011;24474;48.906;8.808;2023-07-30T04:34:31;1.55;;;1.40;;
38725;SDS011;24474;48.906;8.808;2023-07-30T04:36:58;4.03;;;1.55;;
38725;SDS011;24474;48.906;8.808;2023-07-30T04:39:23;2.13;;;1.30;;
38725;SDS011;24474;48.906;8.808;2023-07-30T04:41:49;1.42;;;1.20;;
38725;SDS011;24474;48.906;8.808;2023-07-30T04:44:16;2.45;;;1.33;;
38725;SDS011;24474;48.906;8.808;2023-07-30T04:46:42;2.53;;;1.30;;
38725;SDS011;24474;48.906;8.808;2023-07-30T04:49:09;1.63;;;1.15;;
38725;SDS011;24474;48.906;8.808;2023-07-30T04:51:36;2.33;;;1.33;;
38725;SDS011;24474;48.906;8.808;2023-07-30T04:54:04;1.83;;;1.27;;
38725;SDS011;24474;48.906;8.808;2023-07-30T04:56:31;2.13;;;1.40;;
38725;SDS011;24474;48.906;8.808;2023-07-30T04:58:58;1.50;;;1.10;;
38725;SDS011;24474;48.906;8.808;2023-07-30T05:01:24;2.33;;;1.20;;
38725;SDS011;24474;48.906;8.808;2023-07-30T05:03:50;2.85;;;1.10;;
38725;SDS011;24474;48.906;8.808;2023-07-30T05:06:16;2.35;;;1.17;;
38725;SDS011;24474;48.906;8.808;2023-07-30T05:08:43;2.65;;;1.20;;
38725;SDS011;24474;48.906;8.808;2023-07-30T05:11:10;1.55;;;1.00;;
38725;SDS011;24474;48.906;8.808;2023-07-30T05:13:37;2.10;;;1.20;;
38725;SDS011;24474;48.906;8.808;2023-07-30T05:16:04;2.85;;;1.20;;
38725;SDS011;24474;48.906;8.808;2023-07-30T05:18:34;1.27;;;1.05;;
38725;SDS011;24474;48.906;8.808;2023-07-30T05:21:00;5.25;;;1.30;;
38725;SDS011;24474;48.906;8.808;2023-07-30T05:23:26;2.53;;;1.00;;
38725;SDS011;24474;48.906;8.808;2023-07-30T05:25:52;1.45;;;0.93;;
38725;SDS011;24474;48.906;8.808;2023-07-30T05:28:19;2.40;;;1.00;;
38725;SDS011;24474;48.906;8.808;2023-07-30T05:30:46;1.60;;;0.90;;
38725;SDS011;24474;48.906;8.808;2023-07-30T05:33:14;4.15;;;1.00;;
38725;SDS011;24474;48.906;8.808;2023-07-30T05:35:39;1.35;;;0.70;;
38725;SDS011;24474;48.906;8.808;2023-07-30T05:38:06;2.72;;;1.00;;
38725;SDS011;24474;48.906;8.808;2023-07-30T05:40:32;3.40;;;0.95;;
38725;SDS011;24474;48.906;8.808;2023-07-30T05:43:00;1.58;;;1.02;;
38725;SDS011;24474;48.906;8.808;2023-07-30T05:45:33;1.60;;;0.90;;
38725;SDS011;24474;48.906;8.808;2023-07-30T05:48:00;1.20;;;0.90;;
38725;SDS011;24474;48.906;8.808;2023-07-30T05:50:27;2.55;;;0.90;;
38725;SDS011;24474;48.906;8.808;2023-07-30T05:52:55;1.48;;;0.80;;
38725;SDS011;24474;48.906;8.808;2023-07-30T05:55:22;1.73;;;1.15;;
38725;SDS011;24474;48.906;8.808;2023-07-30T05:57:48;2.05;;;1.30;;
38725;SDS011;24474;48.906;8.808;2023-07-30T06:00:15;3.78;;;1.85;;
38725;SDS011;24474;48.906;8.808;2023-07-30T06:02:45;7.47;;;5.50;;
38725;SDS011;24474;48.906;8.808;2023-07-30T06:05:11;3.42;;;1.90;;
38725;SDS011;24474;48.906;8.808;2023-07-30T06:07:37;1.67;;;1.08;;
38725;SDS011;24474;48.906;8.808;2023-07-30T06:10:04;2.35;;;1.30;;
38725;SDS011;24474;48.906;8.808;2023-07-30T06:12:30;3.08;;;1.25;;
38725;SDS011;24474;48.906;8.808;2023-07-30T06:15:00;1.83;;;1.50;;
38725;SDS011;24474;48.906;8.808;2023-07-30T06:17:28;1.35;;;0.98;;
38725;SDS011;24474;48.906;8.808;2023-07-30T06:19:55;1.52;;;1.27;;
38725;SDS011;24474;48.906;8.808;2023-07-30T06:22:21;1.30;;;1.02;;
38725;SDS011;24474;48.906;8.808;2023-07-30T06:24:48;2.80;;;1.20;;
38725;SDS011;24474;48.906;8.808;2023-07-30T06:27:15;1.40;;;1.30;;
38725;SDS011;24474;48.906;8.808;2023-07-30T06:29:42;2.45;;;1.40;;
38725;SDS011;24474;48.906;8.808;2023-07-30T06:32:07;1.60;;;1.20;;
38725;SDS011;24474;48.906;8.808;2023-07-30T06:34:34;2.60;;;1.30;;
38725;SDS011;24474;48.906;8.808;2023-07-30T06:37:01;1.60;;;1.10;;
38725;SDS011;24474;48.906;8.808;2023-07-30T06:39:29;3.22;;;1.30;;
38725;SDS011;24474;48.906;8.808;2023-07-30T06:42:00;1.40;;;1.20;;
38725;SDS011;24474;48.906;8.808;2023-07-30T06:44:26;1.67;;;1.20;;
38725;SDS011;24474;48.906;8.808;2023-07-30T06:46:53;2.22;;;1.40;;
38725;SDS011;24474;48.906;8.808;2023-07-30T06:49:19;1.80;;;1.20;;
38725;SDS011;24474;48.906;8.808;2023-07-30T06:51:48;1.92;;;1.20;;
38725;SDS011;24474;48.906;8.808;2023-07-30T06:54:16;2.55;;;1.42;;
38725;SDS011;24474;48.906;8.808;2023-07-30T06:56:43;3.00;;;1.38;;
38725;SDS011;24474;48.906;8.808;2023-07-30T06:59:08;2.53;;;1.20;;
38725;SDS011;24474;48.906;8.808;2023-07-30T07:01:35;3.13;;;1.60;;
38725;SDS011;24474;48.906;8.808;2023-07-30T07:04:01;3.45;;;1.55;;
38725;SDS011;24474;48.906;8.808;2023-07-30T07:06:27;2.53;;;1.35;;
38725;SDS011;24474;48.906;8.808;2023-07-30T07:08:54;2.33;;;1.40;;
38725;SDS011;24474;48.906;8.808;2023-07-30T07:11:22;2.47;;;1.33;;
38725;SDS011;24474;48.906;8.808;2023-07-30T07:13:49;4.07;;;1.30;;
38725;SDS011;24474;48.906;8.808;2023-07-30T07:16:15;3.17;;;1.60;;
38725;SDS011;24474;48.906;8.808;2023-07-30T07:18:41;2.80;;;1.35;;
38725;SDS011;24474;48.906;8.808;2023-07-30T07:21:07;2.58;;;1.42;;
38725;SDS011;24474;48.906;8.808;2023-07-30T07:23:34;1.88;;;1.30;;
38725;SDS011;24474;48.906;8.808;2023-07-30T07:26:01;1.80;;;1.40;;
38725;SDS011;24474;48.906;8.808;2023-07-30T07:28:28;2.83;;;1.20;;
38725;SDS011;24474;48.906;8.808;2023-07-30T07:30:54;2.70;;;1.55;;
38725;SDS011;24474;48.906;8.808;2023-07-30T07:33:21;2.63;;;1.35;;
38725;SDS011;24474;48.906;8.808;2023-07-30T07:35:47;2.38;;;1.45;;
38725;SDS011;24474;48.906;8.808;2023-07-30T07:38:14;2.05;;;1.30;;
38725;SDS011;24474;48.906;8.808;2023-07-30T07:40:39;3.47;;;1.48;;
38725;SDS011;24474;48.906;8.808;2023-07-30T07:43:07;1.75;;;1.50;;
38725;SDS011;24474;48.906;8.808;2023-07-30T07:45:33;2.95;;;1.35;;
38725;SDS011;24474;48.906;8.808;2023-07-30T07:48:00;2.08;;;1.30;;
38725;SDS011;24474;48.906;8.808;2023-07-30T07:50:27;2.22;;;1.40;;
38725;SDS011;24474;48.906;8.808;2023-07-30T07:52:58;2.75;;;1.33;;
38725;SDS011;24474;48.906;8.808;2023-07-30T07:55:25;1.95;;;1.48;;
38725;SDS011;24474;48.906;8.808;2023-07-30T07:57:52;1.73;;;1.50;;
38725;SDS011;24474;48.906;8.808;2023-07-30T08:00:17;1.77;;;1.42;;
38725;SDS011;24474;48.906;8.808;2023-07-30T08:02:45;2.38;;;1.35;;
38725;SDS011;24474;48.906;8.808;2023-07-30T08:05:11;2.92;;;1.70;;
38725;SDS011;24474;48.906;8.808;2023-07-30T08:07:36;3.03;;;1.77;;
38725;SDS011;24474;48.906;8.808;2023-07-30T08:10:03;1.80;;;1.48;;
38725;SDS011;24474;48.906;8.808;2023-07-30T08:12:31;1.90;;;1.58;;
38725;SDS011;24474;48.906;8.808;2023-07-30T08:14:59;1.85;;;1.45;;
38725;SDS011;24474;48.906;8.808;2023-07-30T08:17:26;1.50;;;1.27;;
38725;SDS011;24474;48.906;8.808;2023-07-30T08:19:55;2.00;;;1.30;;
38725;SDS011;24474;48.906;8.808;2023-07-30T08:22:22;1.60;;;1.30;;
38725;SDS011;24474;48.906;8.808;2023-07-30T08:24:49;2.08;;;1.33;;
38725;SDS011;24474;48.906;8.808;2023-07-30T08:27:15;2.70;;;1.52;;
38725;SDS011;24474;48.906;8.808;2023-07-30T08:29:41;2.97;;;1.50;;
38725;SDS011;24474;48.906;8.808;2023-07-30T08:32:07;1.83;;;1.40;;
38725;SDS011;24474;48.906;8.808;2023-07-30T08:34:33;2.17;;;1.50;;
38725;SDS011;24474;48.906;8.808;2023-07-30T08:36:59;1.98;;;1.55;;
38725;SDS011;24474;48.906;8.808;2023-07-30T08:39:25;2.88;;;1.83;;
38725;SDS011;24474;48.906;8.808;2023-07-30T08:41:54;3.20;;;1.52;;
38725;SDS011;24474;48.906;8.808;2023-07-30T08:44:20;3.08;;;1.52;;
38725;SDS011;24474;48.906;8.808;2023-07-30T08:46:52;2.95;;;1.58;;
38725;SDS011;24474;48.906;8.808;2023-07-30T08:49:24;2.58;;;1.48;;
38725;SDS011;24474;48.906;8.808;2023-07-30T08:51:59;4.82;;;1.88;;
38725;SDS011;24474;48.906;8.808;2023-07-30T08:54:29;3.25;;;1.52;;
38725;SDS011;24474;48.906;8.808;2023-07-30T08:56:57;3.25;;;1.52;;
38725;SDS011;24474;48.906;8.808;2023-07-30T08:59:24;3.88;;;1.60;;
38725;SDS011;24474;48.906;8.808;2023-07-30T09:01:55;3.20;;;1.75;;
38725;SDS011;24474;48.906;8.808;2023-07-30T09:04:23;4.88;;;1.77;;
38725;SDS011;24474;48.906;8.808;2023-07-30T09:06:53;2.63;;;1.88;;
38725;SDS011;24474;48.906;8.808;2023-07-30T09:09:20;2.47;;;1.60;;
38725;SDS011;24474;48.906;8.808;2023-07-30T09:11:52;2.22;;;1.50;;
38725;SDS011;24474;48.906;8.808;2023-07-30T09:14:23;2.35;;;1.48;;
38725;SDS011;24474;48.906;8.808;2023-07-30T09:16:57;3.00;;;1.60;;
38725;SDS011;24474;48.906;8.808;2023-07-30T09:19:24;2.10;;;1.70;;
38725;SDS011;24474;48.906;8.808;2023-07-30T09:21:50;3.45;;;1.98;;
38725;SDS011;24474;48.906;8.808;2023-07-30T09:24:20;3.95;;;1.67;;
38725;SDS011;24474;48.906;8.808;2023-07-30T09:29:15;2.65;;;1.52;;
38725;SDS011;24474;48.906;8.808;2023-07-30T09:31:48;2.42;;;1.63;;
38725;SDS011;24474;48.906;8.808;2023-07-30T09:34:17;2.45;;;1.50;;
38725;SDS011;24474;48.906;8.808;2023-07-30T09:36:45;4.35;;;1.73;;
38725;SDS011;24474;48.906;8.808;2023-07-30T09:39:18;4.53;;;1.70;;
38725;SDS011;24474;48.906;8.808;2023-07-30T09:41:53;2.30;;;1.48;;
38725;SDS011;24474;48.906;8.808;2023-07-30T09:44:24;4.13;;;1.70;;
38725;SDS011;24474;48.906;8.808;2023-07-30T09:46:50;3.67;;;1.75;;
38725;SDS011;24474;48.906;8.808;2023-07-30T09:49:19;3.97;;;1.63;;
38725;SDS011;24474;48.906;8.808;2023-07-30T09:51:45;6.10;;;1.80;;
38725;SDS011;24474;48.906;8.808;2023-07-30T09:54:14;3.17;;;1.63;;
38725;SDS011;24474;48.906;8.808;2023-07-30T09:56:41;2.90;;;1.55;;
38725;SDS011;24474;48.906;8.808;2023-07-30T09:59:09;1.95;;;1.50;;
38725;SDS011;24474;48.906;8.808;2023-07-30T10:01:36;3.22;;;1.52;;
38725;SDS011;24474;48.906;8.808;2023-07-30T10:04:22;4.72;;;1.83;;
38725;SDS011;24474;48.906;8.808;2023-07-30T10:07:06;3.78;;;1.75;;
38725;SDS011;24474;48.906;8.808;2023-07-30T10:09:39;3.63;;;1.83;;
38725;SDS011;24474;48.906;8.808;2023-07-30T10:12:16;2.88;;;1.70;;
38725;SDS011;24474;48.906;8.808;2023-07-30T10:14:58;3.42;;;1.83;;
38725;SDS011;24474;48.906;8.808;2023-07-30T10:17:27;5.82;;;1.90;;
38725;SDS011;24474;48.906;8.808;2023-07-30T10:19:58;4.25;;;1.48;;
38725;SDS011;24474;48.906;8.808;2023-07-30T10:22:50;2.78;;;1.67;;
38725;SDS011;24474;48.906;8.808;2023-07-30T10:25:48;2.83;;;1.80;;
38725;SDS011;24474;48.906;8.808;2023-07-30T10:28:33;4.70;;;1.95;;
38725;SDS011;24474;48.906;8.808;2023-07-30T10:31:04;2.05;;;1.50;;
38725;SDS011;24474;48.906;8.808;2023-07-30T10:33:49;2.20;;;1.50;;
38725;SDS011;24474;48.906;8.808;2023-07-30T10:36:31;3.03;;;1.55;;
38725;SDS011;24474;48.906;8.808;2023-07-30T10:39:21;2.42;;;1.70;;
38725;SDS011;24474;48.906;8.808;2023-07-30T10:41:58;2.67;;;1.70;;
38725;SDS011;24474;48.906;8.808;2023-07-30T10:44:29;4.45;;;1.80;;
38725;SDS011;24474;48.906;8.808;2023-07-30T10:47:12;2.60;;;1.67;;
38725;SDS011;24474;48.906;8.808;2023-07-30T10:49:39;2.92;;;1.60;;
38725;SDS011;24474;48.906;8.808;2023-07-30T10:52:14;5.22;;;1.88;;
38725;SDS011;24474;48.906;8.808;2023-07-30T10:54:41;4.05;;;1.80;;
38725;SDS011;24474;48.906;8.808;2023-07-30T10:57:06;3.58;;;1.80;;
38725;SDS011;24474;48.906;8.808;2023-07-30T10:59:35;3.25;;;1.65;;
38725;SDS011;24474;48.906;8.808;2023-07-30T11:02:03;3.45;;;1.88;;
38725;SDS011;24474;48.906;8.808;2023-07-30T11:04:33;3.22;;;1.75;;
38725;SDS011;24474;48.906;8.808;2023-07-30T11:07:02;2.95;;;1.67;;
38725;SDS011;24474;48.906;8.808;2023-07-30T11:09:28;3.33;;;1.50;;
38725;SDS011;24474;48.906;8.808;2023-07-30T11:11:55;3.47;;;1.77;;
38725;SDS011;24474;48.906;8.808;2023-07-30T11:14:22;2.53;;;1.40;;
38725;SDS011;24474;48.906;8.808;2023-07-30T11:19:24;3.88;;;1.58;;
38725;SDS011;24474;48.906;8.808;2023-07-30T11:21:51;3.10;;;1.67;;
38725;SDS011;24474;48.906;8.808;2023-07-30T11:24:33;2.92;;;1.70;;
38725;SDS011;24474;48.906;8.808;2023-07-30T11:27:04;4.40;;;1.70;;
38725;SDS011;24474;48.906;8.808;2023-07-30T11:29:31;3.72;;;1.60;;
38725;SDS011;24474;48.906;8.808;2023-07-30T11:32:03;4.95;;;1.77;;
38725;SDS011;24474;48.906;8.808;2023-07-30T11:34:31;4.45;;;1.77;;
38725;SDS011;24474;48.906;8.808;2023-07-30T11:37:01;3.85;;;1.70;;
38725;SDS011;24474;48.906;8.808;2023-07-30T11:39:29;2.85;;;1.60;;
38725;SDS011;24474;48.906;8.808;2023-07-30T11:41:58;3.30;;;1.50;;
38725;SDS011;24474;48.906;8.808;2023-07-30T11:44:37;3.10;;;1.60;;
38725;SDS011;24474;48.906;8.808;2023-07-30T11:47:04;2.65;;;1.60;;
38725;SDS011;24474;48.906;8.808;2023-07-30T11:49:31;3.45;;;1.42;;
38725;SDS011;24474;48.906;8.808;2023-07-30T11:52:09;3.20;;;1.55;;
38725;SDS011;24474;48.906;8.808;2023-07-30T11:54:36;2.63;;;1.48;;
38725;SDS011;24474;48.906;8.808;2023-07-30T11:57:03;3.50;;;1.42;;
38725;SDS011;24474;48.906;8.808;2023-07-30T11:59:30;3.65;;;1.73;;
38725;SDS011;24474;48.906;8.808;2023-07-30T12:02:00;3.95;;;1.58;;
38725;SDS011;24474;48.906;8.808;2023-07-30T12:06:56;4.40;;;1.30;;
38725;SDS011;24474;48.906;8.808;2023-07-30T12:09:22;3.63;;;1.52;;
38725;SDS011;24474;48.906;8.808;2023-07-30T12:11:52;3.42;;;1.08;;
38725;SDS011;24474;48.906;8.808;2023-07-30T12:14:42;3.28;;;1.23;;
38725;SDS011;24474;48.906;8.808;2023-07-30T12:17:10;2.15;;;1.05;;
38725;SDS011;24474;48.906;8.808;2023-07-30T12:19:37;2.60;;;1.00;;
38725;SDS011;24474;48.906;8.808;2023-07-30T12:22:04;2.15;;;1.38;;
38725;SDS011;24474;48.906;8.808;2023-07-30T12:24:31;3.40;;;1.30;;
38725;SDS011;24474;48.906;8.808;2023-07-30T12:26:58;2.13;;;1.23;;
38725;SDS011;24474;48.906;8.808;2023-07-30T12:29:24;4.50;;;1.40;;
38725;SDS011;24474;48.906;8.808;2023-07-30T12:31:51;3.30;;;1.38;;
38725;SDS011;24474;48.906;8.808;2023-07-30T12:34:22;3.78;;;1.40;;
38725;SDS011;24474;48.906;8.808;2023-07-30T12:36:51;2.47;;;1.10;;
38725;SDS011;24474;48.906;8.808;2023-07-30T12:39:16;3.13;;;1.08;;
38725;SDS011;24474;48.906;8.808;2023-07-30T12:41:42;3.92;;;1.40;;
38725;SDS011;24474;48.906;8.808;2023-07-30T12:44:08;2.95;;;1.38;;
38725;SDS011;24474;48.906;8.808;2023-07-30T12:46:34;4.65;;;1.10;;
38725;SDS011;24474;48.906;8.808;2023-07-30T12:49:00;1.42;;;1.10;;
38725;SDS011;24474;48.906;8.808;2023-07-30T12:51:32;3.80;;;1.40;;
38725;SDS011;24474;48.906;8.808;2023-07-30T12:53:58;4.43;;;1.17;;
38725;SDS011;24474;48.906;8.808;2023-07-30T12:56:24;3.97;;;1.27;;
38725;SDS011;24474;48.906;8.808;2023-07-30T12:58:49;3.30;;;1.17;;
38725;SDS011;24474;48.906;8.808;2023-07-30T13:01:16;3.75;;;1.27;;
38725;SDS011;24474;48.906;8.808;2023-07-30T13:03:42;3.53;;;1.08;;
38725;SDS011;24474;48.906;8.808;2023-07-30T13:06:11;3.35;;;1.08;;
38725;SDS011;24474;48.906;8.808;2023-07-30T13:08:38;2.67;;;1.10;;
38725;SDS011;24474;48.906;8.808;2023-07-30T13:11:04;4.07;;;1.10;;
38725;SDS011;24474;48.906;8.808;2023-07-30T13:13:29;1.92;;;1.20;;
38725;SDS011;24474;48.906;8.808;2023-07-30T13:15:55;3.33;;;1.20;;
38725;SDS011;24474;48.906;8.808;2023-07-30T13:18:23;5.50;;;1.13;;
38725;SDS011;24474;48.906;8.808;2023-07-30T13:20:49;4.82;;;1.30;;
38725;SDS011;24474;48.906;8.808;2023-07-30T13:23:15;4.82;;;1.25;;
38725;SDS011;24474;48.906;8.808;2023-07-30T13:25:40;2.75;;;1.30;;
38725;SDS011;24474;48.906;8.808;2023-07-30T13:28:06;3.78;;;1.35;;
38725;SDS011;24474;48.906;8.808;2023-07-30T13:30:32;3.15;;;1.50;;
38725;SDS011;24474;48.906;8.808;2023-07-30T13:32:58;4.18;;;1.50;;
38725;SDS011;24474;48.906;8.808;2023-07-30T13:35:23;2.70;;;1.10;;
38725;SDS011;24474;48.906;8.808;2023-07-30T13:37:49;4.18;;;1.30;;
38725;SDS011;24474;48.906;8.808;2023-07-30T13:40:15;3.95;;;1.33;;
38725;SDS011;24474;48.906;8.808;2023-07-30T13:42:40;2.42;;;1.30;;
38725;SDS011;24474;48.906;8.808;2023-07-30T13:45:06;1.90;;;1.00;;
38725;SDS011;24474;48.906;8.808;2023-07-30T13:47:32;3.50;;;1.30;;
38725;SDS011;24474;48.906;8.808;2023-07-30T13:49:57;3.65;;;1.48;;
38725;SDS011;24474;48.906;8.808;2023-07-30T13:52:23;4.20;;;1.40;;
38725;SDS011;24474;48.906;8.808;2023-07-30T13:54:49;3.55;;;1.20;;
38725;SDS011;24474;48.906;8.808;2023-07-30T13:57:21;5.75;;;1.25;;
38725;SDS011;24474;48.906;8.808;2023-07-30T13:59:50;5.28;;;1.13;;
38725;SDS011;24474;48.906;8.808;2023-07-30T14:02:19;3.92;;;1.30;;
38725;SDS011;24474;48.906;8.808;2023-07-30T14:04:46;2.70;;;1.08;;
38725;SDS011;24474;48.906;8.808;2023-07-30T14:07:12;3.13;;;1.17;;
38725;SDS011;24474;48.906;8.808;2023-07-30T14:09:39;2.85;;;1.38;;
38725;SDS011;24474;48.906;8.808;2023-07-30T14:12:05;6.32;;;1.40;;
38725;SDS011;24474;48.906;8.808;2023-07-30T14:14:32;4.07;;;1.17;;
38725;SDS011;24474;48.906;8.808;2023-07-30T14:16:59;3.70;;;1.30;;
38725;SDS011;24474;48.906;8.808;2023-07-30T14:19:31;5.32;;;1.50;;
38725;SDS011;24474;48.906;8.808;2023-07-30T14:21:58;2.72;;;1.10;;
38725;SDS011;24474;48.906;8.808;2023-07-30T14:24:23;4.18;;;1.33;;
38725;SDS011;24474;48.906;8.808;2023-07-30T14:26:50;3.38;;;1.10;;
38725;SDS011;24474;48.906;8.808;2023-07-30T14:29:17;2.88;;;1.10;;
38725;SDS011;24474;48.906;8.808;2023-07-30T14:31:44;2.60;;;1.10;;
38725;SDS011;24474;48.906;8.808;2023-07-30T14:34:11;3.20;;;1.20;;
38725;SDS011;24474;48.906;8.808;2023-07-30T14:36:38;3.80;;;1.15;;
38725;SDS011;24474;48.906;8.808;2023-07-30T14:39:06;5.13;;;1.30;;
38725;SDS011;24474;48.906;8.808;2023-07-30T14:41:31;5.07;;;2.17;;
38725;SDS011;24474;48.906;8.808;2023-07-30T14:43:58;6.13;;;2.60;;
38725;SDS011;24474;48.906;8.808;2023-07-30T14:46:24;7.70;;;3.38;;
38725;SDS011;24474;48.906;8.808;2023-07-30T14:48:49;6.15;;;3.22;;
38725;SDS011;24474;48.906;8.808;2023-07-30T14:51:15;5.70;;;3.22;;
38725;SDS011;24474;48.906;8.808;2023-07-30T14:53:45;6.75;;;4.53;;
38725;SDS011;24474;48.906;8.808;2023-07-30T14:56:12;4.38;;;2.17;;
38725;SDS011;24474;48.906;8.808;2023-07-30T14:58:39;3.05;;;1.90;;
38725;SDS011;24474;48.906;8.808;2023-07-30T15:01:06;4.50;;;1.42;;